VAM Template | Jonatha

Virtual Airlines Manager! A new look to your va. By: Jonatha Silva




 METAR AND TAF INFORMATION
METAR FOR LIEA
ADDS - METARS form results

(2102 UTC 23 April 2019)
Data provider http://aviationweather.gov/metar/data/
 
METAR text: LIEA 232050Z 18012KT 9999 FEW025 16/13 Q1008
Conditions at: LIEA (ALGHERO , IT) observed 2050 UTC 23 April 2019
Temperature: 16.0°C (61°F)
Dewpoint: 13.0°C (55°F) [RH = 82%]
Pressure (altimeter): 29.76 inches Hg (1008.0 mb)
Winds: from the S (180 degrees) at 14 MPH (12 knots; 6.2 m/s)
Visibility: 6 or more miles (10+ km)
Ceiling: at least 12,000 feet AGL
Clouds: few clouds at 2500 feet AGL
Weather: no significant weather observed at this time

METAR text: LIEA 232020Z 19015KT 9000 SCT025 16/14 Q1008
Conditions at: LIEA (ALGHERO , IT) observed 2020 UTC 23 April 2019
Temperature: 16.0°C (61°F)
Dewpoint: 14.0°C (57°F) [RH = 88%]
Pressure (altimeter): 29.76 inches Hg (1008.0 mb)
Winds: from the S (190 degrees) at 17 MPH (15 knots; 7.7 m/s)
Visibility: 6 miles ( 9 km)
Ceiling: at least 12,000 feet AGL
Clouds: scattered clouds at 2500 feet AGL
Weather: no significant weather observed at this time

Forecast for: LIEA (ALGHERO , IT)
Text: TAF LIEA 231700Z 2318/2418 18013KT 9999 SCT015
Forecast period: 1800 UTC 23 April 2019 to 0300 UTC 24 April 2019
Forecast type: FROM: standard forecast or significant change
Winds: from the S (180 degrees) at 15 MPH (13 knots; 6.7 m/s)
Visibility: 6 or more miles 10+ km)
Ceiling: at least 12,000 feet AGL
Clouds: scattered clouds at 1500 feet AGL
Weather: no significant weather forecast for this period
Text: BECMG 2403/2406 VRB05KT
Forecast period: 0300 to 1800 UTC 24 April 2019
Forecast type: BECOMING: Conditions expected to become as follows by 0600 UTC 24 April 2019
Winds: variable direction winds at 6 MPH (5 knots; 2.6 m/s)
Visibility: 6 or more miles 10+ km)
Ceiling: at least 12,000 feet AGL
Clouds: scattered clouds at 1500 feet AGL
Weather: no significant weather forecast for this period

 AIRPORT MAP

 RUNWAY INFORMATION
Runway 02 Runway length 9843 ft Runway width 148 ft
Runway elevation 69 ft Runway displaced threshold 0 ft Runway heading 25
Runway 20 Runway length 9843 ft Runway width 148 ft
Runway elevation 87 ft Runway displaced threshold 0 ft Runway heading 205

 AIRPORT FREQUENCIES
Type APP Name APP Frequency 128.55 MHZ
Type ATIS Name ATIS Frequency 125.025 MHZ
Type TWR Name TWR Frequency 118.85 MHZ

 AIRPORT NEAR NAVIGATION AIDS
Type TACAN Name Alghero Frequency 109300 KHZ
Type VORTAC Name Alghero Frequency 113800 KHZ
Type NDB Name Alghero Frequency 382 KHZ